地図

経路データ

SID SEASON NUMBER BASIN SUBBASIN NAME ISO_TIME NATURE LAT LON WMO_WIND WMO_PRES WMO_AGENCY TRACK_TYPE DIST2LAND LANDFALL IFLAG USA_AGENCY USA_ATCF_ID USA_LAT USA_LON USA_RECORD USA_STATUS USA_WIND USA_PRES USA_SSHS USA_R34_NE USA_R34_SE USA_R34_SW USA_R34_NW USA_R50_NE USA_R50_SE USA_R50_SW USA_R50_NW USA_R64_NE USA_R64_SE USA_R64_SW USA_R64_NW USA_POCI USA_ROCI USA_RMW USA_EYE TOKYO_LAT TOKYO_LON TOKYO_GRADE TOKYO_WIND TOKYO_PRES TOKYO_R50_DIR TOKYO_R50_LONG TOKYO_R50_SHORT TOKYO_R30_DIR TOKYO_R30_LONG TOKYO_R30_SHORT TOKYO_LAND CMA_LAT CMA_LON CMA_CAT CMA_WIND CMA_PRES HKO_LAT HKO_LON HKO_CAT HKO_WIND HKO_PRES NEWDELHI_LAT NEWDELHI_LON NEWDELHI_GRADE NEWDELHI_WIND NEWDELHI_PRES NEWDELHI_CI NEWDELHI_DP NEWDELHI_POCI REUNION_LAT REUNION_LON REUNION_TYPE REUNION_WIND REUNION_PRES REUNION_TNUM REUNION_CI REUNION_RMW REUNION_R34_NE REUNION_R34_SE REUNION_R34_SW REUNION_R34_NW REUNION_R50_NE REUNION_R50_SE REUNION_R50_SW REUNION_R50_NW REUNION_R64_NE REUNION_R64_SE REUNION_R64_SW REUNION_R64_NW BOM_LAT BOM_LON BOM_TYPE BOM_WIND BOM_PRES BOM_TNUM BOM_CI BOM_RMW BOM_R34_NE BOM_R34_SE BOM_R34_SW BOM_R34_NW BOM_R50_NE BOM_R50_SE BOM_R50_SW BOM_R50_NW BOM_R64_NE BOM_R64_SE BOM_R64_SW BOM_R64_NW BOM_ROCI BOM_POCI BOM_EYE BOM_POS_METHOD BOM_PRES_METHOD NADI_LAT NADI_LON NADI_CAT NADI_WIND NADI_PRES WELLINGTON_LAT WELLINGTON_LON WELLINGTON_WIND WELLINGTON_PRES DS824_LAT DS824_LON DS824_STAGE DS824_WIND DS824_PRES TD9636_LAT TD9636_LON TD9636_STAGE TD9636_WIND TD9636_PRES TD9635_LAT TD9635_LON TD9635_WIND TD9635_PRES TD9635_ROCI NEUMANN_LAT NEUMANN_LON NEUMANN_CLASS NEUMANN_WIND NEUMANN_PRES MLC_LAT MLC_LON MLC_CLASS MLC_WIND MLC_PRES USA_GUST BOM_GUST BOM_GUST_PER REUNION_GUST REUNION_GUST_PER USA_SEAHGT USA_SEARAD_NE USA_SEARAD_SE USA_SEARAD_SW USA_SEARAD_NW STORM_SPEED STORM_DIR
1954025S16164 1954 5 SP MM NOT_NAMED 1954-01-25 00:00:00 TS -15.9000 163.800 bom main 305 278 O_____O__OO___ jtwc_sh SH061954 -15.9000 163.800 -1 -15.9000 163.800 -15.9000 163.800 TC -15.9000 163.800 2 8 130
1954025S16164 1954 5 SP MM NOT_NAMED 1954-01-25 03:00:00 TS -16.1458 164.107 main 278 260 P_____P__PP___ SH061954 -16.1401 164.117 -1 -16.1401 164.117 -16.1401 164.117 TC -16.1629 164.075 2 8 132
1954025S16164 1954 5 SP MM NOT_NAMED 1954-01-25 06:00:00 TS -16.4076 164.385 bom main 260 252 O_____O__OP___ jtwc_sh SH061954 -16.4000 164.400 -1 -16.4000 164.400 -16.4000 164.400 TC -16.4305 164.340 2 7 139
1954025S16164 1954 5 SP MM NOT_NAMED 1954-01-25 09:00:00 TS -16.6963 164.613 main 258 252 P_____P__PP___ SH061954 -16.6924 164.623 -1 -16.6924 164.623 -16.6924 164.623 TC -16.7078 164.585 2 7 146
1954025S16164 1954 5 SP MM NOT_NAMED 1954-01-25 12:00:00 TS -17.0000 164.800 bom main 258 256 O_____O__OO___ jtwc_sh SH061954 -17.0000 164.800 -1 -17.0000 164.800 -17.0000 164.800 TC -17.0000 164.800 2 7 150
1954025S16164 1954 5 SP MM NOT_NAMED 1954-01-25 15:00:00 TS -17.3022 164.978 main 260 260 P_____P__PP___ SH061954 -17.3000 164.980 -1 -17.3000 164.980 -17.3000 164.980 TC -17.3088 164.974 2 7 155
1954025S16164 1954 5 SP MM NOT_NAMED 1954-01-25 18:00:00 TS -17.6055 165.098 bom main 271 271 O_____O__OP___ jtwc_sh SH061954 -17.6000 165.100 -1 -17.6000 165.100 -17.6000 165.100 TC -17.6222 165.092 2 6 165
1954025S16164 1954 5 SP MM NOT_NAMED 1954-01-25 21:00:00 TS -17.9117 165.149 main 275 243 P_____P__PP___ SH061954 -17.9074 165.152 -1 -17.9074 165.152 -17.9074 165.152 TC -17.9244 165.139 2 6 178
1954025S16164 1954 5 SP MM NOT_NAMED 1954-01-26 00:00:00 TS -18.2000 165.100 bom main 243 208 O_____O__OO___ jtwc_sh SH061954 -18.2000 165.100 -1 -18.2000 165.100 -18.2000 165.100 TC -18.2000 165.100 2 6 199
1954025S16164 1954 5 SP MM NOT_NAMED 1954-01-26 03:00:00 TS -18.4667 164.945 main 205 179 P_____P__PP___ SH061954 -18.4725 164.938 -1 -18.4725 164.938 -18.4725 164.938 TC -18.4492 164.966 2 6 217
1954025S16164 1954 5 SP MM NOT_NAMED 1954-01-26 06:00:00 TS -18.6919 164.712 bom main 179 151 O_____O__OP___ jtwc_sh SH061954 -18.7000 164.700 -1 -18.7000 164.700 -18.7000 164.700 TC -18.6677 164.748 2 6 228
1954025S16164 1954 5 SP MM NOT_NAMED 1954-01-26 09:00:00 TS -18.8730 164.469 main 151 134 P_____P__PP___ SH061954 -18.8800 164.465 -1 -18.8800 164.465 -18.8800 164.465 TC -18.8523 164.481 2 6 238
1954025S16164 1954 5 SP MM NOT_NAMED 1954-01-26 12:00:00 TS -19.0000 164.200 bom main 134 124 O_____O__OO___ jtwc_sh SH061954 -19.0000 164.200 -1 -19.0000 164.200 -19.0000 164.200 TC -19.0000 164.200 2 6 251
1954025S16164 1954 5 SP MM NOT_NAMED 1954-01-26 15:00:00 TS -19.0537 163.900 main 124 124 P_____P__PP___ SH061954 -19.0576 163.892 -1 -19.0576 163.892 -19.0576 163.892 TC -19.0421 163.924 2 6 261
1954025S16164 1954 5 SP MM NOT_NAMED 1954-01-26 18:00:00 TS -19.0901 163.612 bom main 133 133 O_____O__OP___ jtwc_sh SH061954 -19.1000 163.600 -1 -19.1000 163.600 -19.1000 163.600 TC -19.0603 163.647 2 5 261
1954025S16164 1954 5 SP MM NOT_NAMED 1954-01-26 21:00:00 TS -19.1358 163.371 main 143 137 P_____P__PP___ SH061954 -19.1400 163.362 -1 -19.1400 163.362 -19.1400 163.362 TC -19.1233 163.396 2 4 242
1954025S16164 1954 5 SP MM NOT_NAMED 1954-01-27 00:00:00 TS -19.3000 163.200 bom main 137 115 O_____O__OO___ jtwc_sh SH061954 -19.3000 163.200 -1 -19.3000 163.200 -19.3000 163.200 TC -19.3000 163.200 2 6 203
1954025S16164 1954 5 SP MM NOT_NAMED 1954-01-27 03:00:00 TS -19.6874 163.119 main 115 94 P_____P__PP___ SH061954 -19.6825 163.127 -1 -19.6825 163.127 -19.6825 163.127 TC -19.7020 163.092 2 9 186
1954025S16164 1954 5 SP MM NOT_NAMED 1954-01-27 06:00:00 TS -20.2043 163.085 bom main 94 93 O_____O__OP___ jtwc_sh SH061954 -20.2000 163.100 -1 -20.2000 163.100 -20.2000 163.100 TC -20.2173 163.040 2 11 184
1954025S16164 1954 5 SP MM NOT_NAMED 1954-01-27 09:00:00 TS -20.7672 163.042 main 118 118 P_____P__PP___ SH061954 -20.7650 163.050 -1 -20.7650 163.050 -20.7650 163.050 TC -20.7740 163.017 2 11 184
1954025S16164 1954 5 SP MM NOT_NAMED 1954-01-27 12:00:00 TS -21.3000 163.000 bom main 152 152 O_____O__OO___ jtwc_sh SH061954 -21.3000 163.000 -1 -21.3000 163.000 -21.3000 163.000 TC -21.3000 163.000 2 9 184
1954025S16164 1954 5 SP MM NOT_NAMED 1954-01-27 15:00:00 TS -21.6740 162.963 main 176 176 P_____P__PP___ SH061954 -21.6800 162.950 -1 -21.6800 162.950 -21.6800 162.950 TC -21.6562 163.001 2 7 186
1954025S16164 1954 5 SP MM NOT_NAMED 1954-01-27 18:00:00 TS -21.9942 162.924 bom main 205 205 O_____O__OP___ jtwc_sh SH061954 -22.0000 162.900 -1 -22.0000 162.900 -22.0000 162.900 TC -21.9769 162.995 2 6 185
1954025S16164 1954 5 SP MM NOT_NAMED 1954-01-27 21:00:00 TS -22.3172 162.901 main 228 228 P_____P__PP___ SH061954 -22.3199 162.887 -1 -22.3199 162.887 -22.3199 162.887 TC -22.3092 162.941 2 7 189
1954025S16164 1954 5 SP MM NOT_NAMED 1954-01-28 00:00:00 TS -22.7000 162.800 bom main 260 260 O_____O__OO___ jtwc_sh SH061954 -22.7000 162.800 -1 -22.7000 162.800 -22.7000 162.800 TC -22.7000 162.800 2 10 200
1954025S16164 1954 5 SP MM NOT_NAMED 1954-01-28 03:00:00 TS -23.2221 162.552 main 310 310 P_____P__PP___ SH061954 -23.2125 162.560 -1 -23.2125 162.560 -23.2125 162.560 TC -23.2512 162.528 2 13 207
1954025S16164 1954 5 SP MM NOT_NAMED 1954-01-28 06:00:00 TS -23.8145 162.191 bom main 385 385 O_____O__OP___ jtwc_sh SH061954 -23.8000 162.200 -1 -23.8000 162.200 -23.8000 162.200 TC -23.8579 162.165 2 14 211
1954025S16164 1954 5 SP MM NOT_NAMED 1954-01-28 09:00:00 TS -24.4433 161.766 main 461 461 P_____P__PP___ SH061954 -24.4375 161.773 -1 -24.4375 161.773 -24.4375 161.773 TC -24.4606 161.744 2 14 214
1954025S16164 1954 5 SP MM NOT_NAMED 1954-01-28 12:00:00 TS -25.0000 161.300 bom main 545 545 O_____O__OO___ jtwc_sh SH061954 -25.0000 161.300 -1 -25.0000 161.300 -25.0000 161.300 TC -25.0000 161.300 2 12 223
1954025S16164 1954 5 SP MM NOT_NAMED 1954-01-28 15:00:00 TS -25.3433 160.842 main 604 604 P_____P__PP___ SH061954 -25.3374 160.842 -1 -25.3374 160.842 -25.3374 160.842 TC -25.3608 160.843 2 10 233
1954025S16164 1954 5 SP MM NOT_NAMED 1954-01-28 18:00:00 TS -25.6146 160.395 bom main 656 656 O_____O__OP___ jtwc_sh SH061954 -25.6000 160.400 -1 -25.6000 160.400 -25.6000 160.400 TC -25.6583 160.381 2 10 234
1954025S16164 1954 5 SP EA NOT_NAMED 1954-01-28 21:00:00 TS -25.9222 159.966 main 669 629 P_____P__PP___ SH061954 -25.9125 159.970 -1 -25.9125 159.970 -25.9125 159.970 TC -25.9515 159.953 2 10 226
1954025S16164 1954 5 SP EA NOT_NAMED 1954-01-29 00:00:00 TS -26.3000 159.600 bom main 629 582 O_____O__OO___ jtwc_sh SH061954 -26.3000 159.600 -1 -26.3000 159.600 -26.3000 159.600 TC -26.3000 159.600 2 11 214
1954025S16164 1954 5 SP EA NOT_NAMED 1954-01-29 03:00:00 TS -26.8152 159.305 main 582 547 P_____P__PP___ SH061954 -26.8199 159.298 -1 -26.8199 159.298 -26.8199 159.298 TC -26.8009 159.327 2 12 202
1954025S16164 1954 5 SP EA NOT_NAMED 1954-01-29 06:00:00 TS -27.3904 159.109 bom main 547 530 O_____O__OP___ jtwc_sh SH061954 -27.4000 159.100 -1 -27.4000 159.100 -27.4000 159.100 TC -27.3617 159.136 2 12 193
1954025S16164 1954 5 SP EA NOT_NAMED 1954-01-29 09:00:00 TS -27.9647 159.016 main 529 526 P_____P__PP___ SH061954 -27.9724 159.012 -1 -27.9724 159.012 -27.9724 159.012 TC -27.9417 159.027 2 11 185
1954025S16164 1954 5 SP EA NOT_NAMED 1954-01-29 12:00:00 TS -28.5000 159.000 bom main 526 524 O_____O__OO___ jtwc_sh SH061954 -28.5000 159.000 -1 -28.5000 159.000 -28.5000 159.000 TC -28.5000 159.000 2 10 182
1954025S16164 1954 5 SP EA NOT_NAMED 1954-01-29 15:00:00 TS -28.9160 158.966 main 524 524 P_____P__PP___ SH061954 -28.9074 158.955 -1 -28.9074 158.955 -28.9074 158.955 TC -28.9416 158.998 2 8 179
1954025S16164 1954 5 SP EA NOT_NAMED 1954-01-29 18:00:00 TS -29.3154 159.020 bom main 525 525 O_____O__OP___ jtwc_sh SH061954 -29.3000 159.000 -1 -29.3000 159.000 -29.3000 159.000 TC -29.3616 159.080 2 9 166
1954025S16164 1954 5 SP EA NOT_NAMED 1954-01-29 21:00:00 TS -29.7720 159.204 main 551 551 P_____P__PP___ SH061954 -29.7624 159.190 -1 -29.7624 159.190 -29.7624 159.190 TC -29.8008 159.246 2 11 157
1954025S16164 1954 5 SP EA NOT_NAMED 1954-01-30 00:00:00 TS -30.3000 159.500 bom main 590 590 O_____O__OO___ jtwc_sh SH061954 -30.3000 159.500 -1 -30.3000 159.500 -30.3000 159.500 TC -30.3000 159.500 2 13 154
1954025S16164 1954 5 SP EA NOT_NAMED 1954-01-30 03:00:00 TS -30.9177 159.862 main 641 641 P_____P__PP___ SH061954 -30.9200 159.870 -1 -30.9200 159.870 -30.9200 159.870 TC -30.9110 159.837 2 15 152
1954025S16164 1954 5 SP MM NOT_NAMED 1954-01-30 06:00:00 TS -31.5959 160.290 bom main 684 684 O_____O__OP___ jtwc_sh SH061954 -31.6000 160.300 -1 -31.6000 160.300 -31.6000 160.300 TC -31.5835 160.258 2 16 151
1954025S16164 1954 5 SP MM NOT_NAMED 1954-01-30 09:00:00 TS -32.2973 160.744 main 730 730 P_____P__PP___ SH061954 -32.3000 160.750 -1 -32.3000 160.750 -32.3000 160.750 TC -32.2891 160.725 2 16 151
1954025S16164 1954 5 SP MM NOT_NAMED 1954-01-30 12:00:00 TS -33.0000 161.200 bom main 790 790 O_____O__OO___ jtwc_sh SH061954 -33.0000 161.200 -1 -33.0000 161.200 -33.0000 161.200 TC -33.0000 161.200 2 16 152
1954025S16164 1954 5 SP MM NOT_NAMED 1954-01-30 15:00:00 TS -33.6609 161.613 main 847 847 P_____P__PP___ SH061954 -33.6497 161.601 -1 -33.6497 161.601 -33.6497 161.601 TC -33.6944 161.650 2 15 153
1954025S16164 1954 5 SP MM NOT_NAMED 1954-01-30 18:00:00 TS -34.3181 162.019 bom main 899 899 O_____O__OP___ jtwc_sh SH061954 -34.3000 162.000 -1 -34.3000 162.000 -34.3000 162.000 TC -34.3725 162.077 2 15 153
1954025S16164 1954 5 SP MM NOT_NAMED 1954-01-30 21:00:00 TS -35.0008 162.449 main 931 890 P_____P__PP___ SH061954 -34.9879 162.436 -1 -34.9879 162.436 -34.9879 162.436 TC -35.0394 162.490 2 16 152
1954025S16164 1954 5 SP MM NOT_NAMED 1954-01-31 00:00:00 TS -35.7000 162.900 bom main 890 O_____O__OO___ jtwc_sh SH061954 -35.7000 162.900 -1 -35.7000 162.900 -35.7000 162.900 TC -35.7000 162.900 2 16 152

デジタル台風データ・検索

IBTrACS Databaseについて

本データベースは、米国NOAAが公開する1842年以降の世界の熱帯低気圧のベストトラックデータアーカイブInternational Best Track Archive for Climate Stewardship (IBTrACS)を、ウェブで閲覧しやすい形式に変換したものです。

最終更新日:2021-10-21